Time;durP1;ratioP1;P1;durP2;ratioP2;P2;SDS_P1;SDS_P2;PMS_P1;PMS_P2;Temp;Humidity;BMP_temperature;BMP_pressure;BME280_temperature;BME280_humidity;BME280_pressure;Samples;Min_cycle;Max_cycle;Signal;HPM_P1;HPM_P2
2023/10/01 00:00:42;;;;;;;29.20;12.30;;;;;;;14.99;54.07;101397.70;107576;1254;112069;-62
2023/10/01 00:03:31;;;;;;;31.10;11.00;;;;;;;15.01;53.90;101400.75;107589;1254;109569;-63
2023/10/01 00:06:00;;;;;;;33.40;12.10;;;;;;;15.03;53.91;101400.96;107580;1255;107593;-63
2023/10/01 00:08:29;;;;;;;34.40;12.20;;;;;;;15.04;54.17;101406.86;107611;1254;97998;-62
2023/10/01 00:10:57;;;;;;;24.50;12.90;;;;;;;15.01;54.50;101406.16;107649;1254;98350;-62
2023/10/01 00:13:26;;;;;;;24.20;11.40;;;;;;;14.99;54.53;101401.69;107606;1254;111646;-61
2023/10/01 00:15:55;;;;;;;30.10;13.20;;;;;;;14.96;54.67;101407.20;107568;1253;109118;-61
2023/10/01 00:18:25;;;;;;;35.30;12.00;;;;;;;14.93;54.76;101408.63;107611;1254;106090;-62
2023/10/01 00:20:53;;;;;;;34.50;13.50;;;;;;;14.91;54.75;101416.61;107556;1254;97844;-62
2023/10/01 00:23:22;;;;;;;37.80;12.00;;;;;;;14.90;54.67;101416.33;107638;1254;97967;-62
2023/10/01 00:25:50;;;;;;;35.10;13.20;;;;;;;14.90;54.33;101417.24;107598;1253;111433;-62
2023/10/01 00:28:19;;;;;;;34.30;12.70;;;;;;;14.89;54.24;101417.73;107616;1254;110461;-62
2023/10/01 00:30:47;;;;;;;29.80;12.70;;;;;;;14.88;54.30;101419.37;107597;1253;108271;-61
2023/10/01 00:33:17;;;;;;;29.70;12.80;;;;;;;14.89;54.06;101419.12;107592;1257;97832;-62
2023/10/01 00:35:45;;;;;;;36.30;13.20;;;;;;;14.91;54.00;101416.05;107627;1254;97844;-61
2023/10/01 00:38:16;;;;;;;41.80;12.40;;;;;;;14.92;53.79;101416.13;107580;1254;111162;-62
2023/10/01 00:40:44;;;;;;;26.40;12.90;;;;;;;14.94;53.73;101413.98;107600;1254;108211;-62
2023/10/01 00:43:12;;;;;;;33.50;11.60;;;;;;;14.93;53.90;101415.81;107564;1252;108596;-62
2023/10/01 00:45:41;;;;;;;29.50;11.80;;;;;;;14.90;53.97;101416.35;107430;1254;97791;-63
2023/10/01 00:48:14;;;;;;;29.40;11.90;;;;;;;14.85;54.21;101416.98;107603;1254;98379;-63
2023/10/01 00:50:43;;;;;;;33.30;11.90;;;;;;;14.81;54.16;101416.48;107502;1256;112004;-64
2023/10/01 00:53:12;;;;;;;25.30;12.40;;;;;;;14.76;54.08;101421.63;107607;1254;108524;-63
2023/10/01 00:55:40;;;;;;;21.50;10.90;;;;;;;14.72;54.11;101422.33;107527;1254;108325;-62
2023/10/01 00:58:12;;;;;;;27.10;11.30;;;;;;;14.68;54.12;101424.91;107649;1254;97856;-62
2023/10/01 01:00:42;;;;;;;31.70;11.70;;;;;;;14.66;54.18;101428.15;107655;1254;98386;-62
2023/10/01 01:03:18;;;;;;;30.00;11.50;;;;;;;14.67;54.48;101428.04;107607;1254;111047;-62
2023/10/01 01:08:46;;;;;;;27.00;10.70;;;;;;;14.61;54.50;101428.11;107564;1253;107334;-63
2023/10/01 01:11:15;;;;;;;30.80;12.20;;;;;;;14.55;54.87;101427.84;107613;1254;97837;-63
2023/10/01 01:13:43;;;;;;;30.50;11.80;;;;;;;14.53;54.85;101429.33;107648;1254;97759;-62
2023/10/01 01:16:13;;;;;;;24.50;10.90;;;;;;;14.52;54.65;101433.04;107588;1254;110839;-62
2023/10/01 01:18:42;;;;;;;33.70;11.80;;;;;;;14.52;54.57;101432.17;107647;1255;109882;-62
2023/10/01 01:21:13;;;;;;;23.20;11.20;;;;;;;14.51;54.63;101434.38;107599;1253;108305;-62
2023/10/01 01:23:41;;;;;;;31.80;11.40;;;;;;;14.51;54.69;101436.91;107700;1253;97818;-63
2023/10/01 01:26:10;;;;;;;31.90;11.70;;;;;;;14.52;54.58;101439.23;107578;1254;97759;-62
2023/10/01 01:28:41;;;;;;;31.90;11.80;;;;;;;14.52;54.56;101435.70;107446;1253;112600;-63
2023/10/01 01:31:11;;;;;;;22.60;10.60;;;;;;;14.54;54.82;101440.98;107448;1253;109788;-63
2023/10/01 01:33:44;;;;;;;27.90;11.40;;;;;;;14.55;54.69;101439.09;107643;1253;106903;-62
2023/10/01 01:36:12;;;;;;;29.10;11.60;;;;;;;14.59;54.69;101440.95;107542;1253;97899;-64
2023/10/01 01:39:13;;;;;;;24.50;12.10;;;;;;;14.61;54.69;101445.55;107531;1255;97836;-63
2023/10/01 01:41:48;;;;;;;21.90;12.00;;;;;;;14.64;55.53;101441.27;107608;1253;111013;-62
2023/10/01 01:44:17;;;;;;;26.70;10.90;;;;;;;14.66;55.20;101445.87;107626;1253;108697;-61
2023/10/01 01:46:48;;;;;;;26.60;11.20;;;;;;;14.67;55.01;101448.30;107581;1251;108838;-62
2023/10/01 01:49:18;;;;;;;23.90;11.40;;;;;;;14.68;55.00;101452.13;107535;1256;98460;-62
2023/10/01 01:51:57;;;;;;;27.60;10.90;;;;;;;14.71;55.00;101457.50;107647;1254;97818;-63
2023/10/01 01:54:39;;;;;;;29.90;11.10;;;;;;;14.73;55.04;101454.43;107596;1253;112923;-63
2023/10/01 01:57:15;;;;;;;29.50;12.00;;;;;;;14.75;54.97;101460.14;107678;1251;109786;-64
2023/10/01 01:59:45;;;;;;;36.20;10.70;;;;;;;14.77;54.97;101456.52;107579;1254;107050;-62
2023/10/01 02:02:14;;;;;;;26.90;10.30;;;;;;;14.79;54.87;101462.09;107541;1251;97876;-63
2023/10/01 02:04:58;;;;;;;20.10;10.50;;;;;;;14.83;54.79;101461.78;107682;1251;97758;-62
2023/10/01 02:07:33;;;;;;;25.00;11.70;;;;;;;14.85;54.89;101458.52;107648;1254;111126;-62
2023/10/01 02:10:04;;;;;;;23.90;11.30;;;;;;;14.85;54.89;101457.92;107687;1254;108296;-62
2023/10/01 02:12:36;;;;;;;24.00;12.00;;;;;;;14.85;54.81;101455.95;107608;1253;106928;-61
2023/10/01 02:15:08;;;;;;;26.20;12.00;;;;;;;14.84;54.87;101456.38;107646;1253;97847;-63
2023/10/01 02:17:36;;;;;;;29.10;12.10;;;;;;;14.84;54.94;101460.27;107685;1251;97850;-63
2023/10/01 02:20:21;;;;;;;27.00;12.40;;;;;;;14.79;55.20;101463.90;107641;1254;111606;-64
2023/10/01 02:22:51;;;;;;;26.20;11.80;;;;;;;14.75;55.32;101461.83;107547;1254;108880;-62
2023/10/01 02:25:36;;;;;;;31.60;12.10;;;;;;;14.69;55.44;101467.35;107651;1254;108177;-64
2023/10/01 02:28:14;;;;;;;26.70;12.90;;;;;;;14.65;55.59;101463.29;107626;1253;97861;-62
2023/10/01 02:30:44;;;;;;;27.90;13.30;;;;;;;14.61;55.78;101465.27;107583;1254;97709;-62
2023/10/01 02:33:16;;;;;;;29.70;13.10;;;;;;;14.59;55.93;101470.98;107676;1251;110820;-62
2023/10/01 02:35:55;;;;;;;42.60;14.50;;;;;;;14.60;56.06;101472.58;107587;1254;109669;-62
2023/10/01 02:38:45;;;;;;;25.20;13.60;;;;;;;14.62;56.81;101475.95;107552;1253;109242;-62
2023/10/01 02:41:15;;;;;;;31.60;13.40;;;;;;;14.63;56.81;101474.96;107426;1254;98521;-63
2023/10/01 02:43:45;;;;;;;31.70;15.20;;;;;;;14.63;56.96;101473.52;107640;1254;97908;-62
2023/10/01 02:46:15;;;;;;;31.60;13.50;;;;;;;14.62;57.06;101471.87;107594;1254;112133;-63
2023/10/01 02:48:47;;;;;;;26.20;12.10;;;;;;;14.61;57.14;101475.16;107585;1251;110602;-64
2023/10/01 02:51:15;;;;;;;31.10;11.80;;;;;;;14.60;57.03;101477.80;107558;1252;107066;-63
2023/10/01 02:54:05;;;;;;;26.60;12.00;;;;;;;14.56;57.14;101479.97;107601;1253;97915;-63
2023/10/01 02:56:37;;;;;;;33.20;12.60;;;;;;;14.52;57.22;101479.41;107635;1251;97824;-61
2023/10/01 02:59:13;;;;;;;34.60;15.00;;;;;;;14.53;57.43;101485.06;107679;1251;112332;-62
2023/10/01 03:01:48;;;;;;;24.20;12.20;;;;;;;14.55;57.72;101482.95;107654;1254;110056;-62
2023/10/01 03:04:17;;;;;;;28.80;12.00;;;;;;;14.56;57.76;101484.61;107562;1252;108300;-62
2023/10/01 03:06:56;;;;;;;29.00;12.70;;;;;;;14.57;57.93;101486.01;107506;1253;97979;-62
2023/10/01 03:09:31;;;;;;;35.00;12.90;;;;;;;14.60;58.12;101487.17;107605;1251;97781;-62
2023/10/01 03:15:23;;;;;;;34.80;16.10;;;;;;;14.70;60.23;101487.33;107594;1253;109237;-63
2023/10/01 03:17:57;;;;;;;36.60;15.70;;;;;;;14.78;60.16;101482.49;107627;1254;108317;-63
2023/10/01 03:21:07;;;;;;;36.80;16.90;;;;;;;14.85;61.86;101481.95;107593;1251;97819;-63
2023/10/01 03:28:26;;;;;;;;;;;;;;;15.03;61.50;101484.25;107573;1254;109978;-61
2023/10/01 03:31:09;;;;;;;33.70;17.00;;;;;;;15.07;61.38;101484.09;107624;1253;109078;-62
2023/10/01 03:33:42;;;;;;;46.10;17.70;;;;;;;15.09;61.70;101484.36;107577;1253;97829;-63
2023/10/01 03:36:12;;;;;;;35.70;16.30;;;;;;;15.12;61.81;101485.58;107637;1251;97723;-62
2023/10/01 03:38:45;;;;;;;47.80;18.40;;;;;;;15.13;62.04;101486.48;107612;1252;110649;-63
2023/10/01 03:41:23;;;;;;;;;;;;;;;15.17;61.91;101483.83;107684;1254;109168;-62
2023/10/01 03:44:08;;;;;;;33.60;15.70;;;;;;;15.16;61.26;101489.06;107588;1253;107854;-63
2023/10/01 03:46:42;;;;;;;30.10;16.40;;;;;;;15.14;61.07;101490.77;107576;1254;97870;-61
2023/10/01 03:51:58;;;;;;;40.00;19.50;;;;;;;15.12;61.88;101488.80;107561;1252;112268;-62
2023/10/01 03:57:18;;;;;;;40.40;18.50;;;;;;;15.12;62.56;101492.98;107621;1256;108382;-62
2023/10/01 03:59:54;;;;;;;39.30;18.90;;;;;;;15.11;62.46;101493.42;107574;1252;97841;-62
2023/10/01 04:02:27;;;;;;;42.40;18.30;;;;;;;15.11;63.06;101497.59;107608;1254;98366;-62
2023/10/01 04:04:58;;;;;;;33.60;18.70;;;;;;;15.11;64.02;101497.38;107610;1256;110854;-63
2023/10/01 04:07:42;;;;;;;41.80;17.90;;;;;;;15.11;63.75;101502.27;107583;1251;109817;-63
2023/10/01 04:10:13;;;;;;;28.20;17.30;;;;;;;15.12;64.53;101500.75;107554;1254;107067;-63
2023/10/01 04:12:50;;;;;;;34.20;17.40;;;;;;;15.13;64.87;101506.26;107603;1254;97929;-63
2023/10/01 04:15:27;;;;;;;40.50;17.70;;;;;;;15.15;66.82;101507.84;107625;1253;98466;-62
2023/10/01 04:23:32;;;;;;;35.30;18.20;;;;;;;15.17;68.26;101514.46;107537;1254;108524;-62
2023/10/01 04:26:06;;;;;;;35.00;17.00;;;;;;;15.21;69.78;101515.77;107602;1253;97867;-62
2023/10/01 04:28:36;;;;;;;34.30;19.40;;;;;;;15.23;70.04;101515.74;107554;1253;98414;-63
2023/10/01 04:31:09;;;;;;;28.60;17.60;;;;;;;15.25;70.35;101519.86;107563;1253;111475;-63
2023/10/01 04:33:42;;;;;;;38.20;17.40;;;;;;;15.27;70.51;101525.80;107615;1254;109114;-62
2023/10/01 04:36:12;;;;;;;37.40;16.90;;;;;;;15.28;70.21;101524.42;107625;1253;106757;-62
2023/10/01 04:38:41;;;;;;;31.20;16.20;;;;;;;15.29;71.17;101523.14;107529;1253;97928;-63
2023/10/01 04:41:16;;;;;;;35.00;16.50;;;;;;;15.29;70.65;101523.42;107589;1253;98389;-63
2023/10/01 04:43:52;;;;;;;31.80;16.50;;;;;;;15.32;71.03;101529.66;107590;1253;111886;-62
2023/10/01 04:46:24;;;;;;;37.00;18.30;;;;;;;15.31;71.67;101528.15;107585;1254;110412;-63
2023/10/01 04:48:54;;;;;;;35.30;18.10;;;;;;;15.31;71.78;101532.25;107602;1251;108443;-62
2023/10/01 04:51:23;;;;;;;32.20;16.60;;;;;;;15.33;72.65;101531.23;107613;1253;97828;-64
2023/10/01 04:53:52;;;;;;;32.90;16.30;;;;;;;15.37;71.98;101532.46;107553;1254;97906;-63
2023/10/01 04:56:20;;;;;;;31.50;15.40;;;;;;;15.42;72.05;101536.91;107618;1253;111852;-62
2023/10/01 04:58:54;;;;;;;29.60;15.80;;;;;;;15.47;72.16;101540.16;107577;1255;110045;-63
2023/10/01 05:01:28;;;;;;;24.60;15.00;;;;;;;15.59;71.92;101542.45;107571;1254;108291;-62
2023/10/01 05:03:57;;;;;;;30.80;17.20;;;;;;;15.72;72.14;101543.23;107564;1254;98017;-62
2023/10/01 05:06:27;;;;;;;28.90;16.60;;;;;;;15.82;71.61;101541.70;107559;1253;97812;-63
2023/10/01 05:08:56;;;;;;;31.60;15.10;;;;;;;15.94;71.03;101543.89;107566;1252;112600;-62
2023/10/01 05:11:34;;;;;;;36.10;15.90;;;;;;;16.05;71.29;101541.44;107616;1254;108932;-62
2023/10/01 05:14:06;;;;;;;29.20;14.80;;;;;;;16.16;70.73;101543.75;107597;1256;108162;-63
2023/10/01 05:16:38;;;;;;;28.30;15.30;;;;;;;16.25;70.92;101546.83;107532;1255;97941;-63
2023/10/01 05:19:10;;;;;;;39.30;18.70;;;;;;;16.25;71.01;101544.45;107608;1251;97710;-62
2023/10/01 05:21:46;;;;;;;31.40;17.00;;;;;;;16.29;71.06;101541.16;107599;1251;111612;-62
2023/10/01 05:24:36;;;;;;;30.50;16.20;;;;;;;16.33;70.87;101542.05;107631;1251;108845;-63
2023/10/01 05:27:18;;;;;;;34.00;15.90;;;;;;;16.35;71.28;101544.89;107588;1251;107447;-63
2023/10/01 05:29:48;;;;;;;30.30;16.20;;;;;;;16.35;71.23;101547.88;107539;1251;97835;-63
2023/10/01 05:32:18;;;;;;;27.40;15.60;;;;;;;16.30;72.36;101551.73;107654;1251;98383;-62
2023/10/01 05:34:47;;;;;;;26.90;15.50;;;;;;;16.26;72.62;101553.62;107611;1251;111579;-63
2023/10/01 05:37:36;;;;;;;29.40;15.00;;;;;;;16.26;72.59;101552.31;107602;1251;109700;-63
2023/10/01 05:40:06;;;;;;;26.20;14.80;;;;;;;16.26;72.75;101552.30;107605;1251;108226;-63
2023/10/01 05:42:41;;;;;;;23.50;15.20;;;;;;;16.26;73.13;101553.83;107541;1255;97943;-63
2023/10/01 05:45:18;;;;;;;28.70;15.60;;;;;;;16.22;73.99;101556.37;107604;1254;97857;-63
2023/10/01 05:47:54;;;;;;;34.00;15.90;;;;;;;16.22;73.88;101555.83;107614;1251;110683;-62
2023/10/01 05:50:28;;;;;;;31.30;15.30;;;;;;;16.23;74.19;101559.89;107628;1251;108491;-63
2023/10/01 05:52:57;;;;;;;32.60;15.80;;;;;;;16.24;74.47;101564.44;107540;1255;107773;-61
2023/10/01 05:55:26;;;;;;;28.80;15.90;;;;;;;16.28;73.40;101563.48;107582;1255;97723;-63
2023/10/01 05:58:12;;;;;;;29.00;15.10;;;;;;;16.37;73.28;101568.60;107592;1251;97976;-63
2023/10/01 06:00:45;;;;;;;32.30;14.80;;;;;;;16.42;73.61;101571.73;107638;1251;110878;-63
2023/10/01 06:03:15;;;;;;;29.60;15.70;;;;;;;16.45;73.55;101577.40;107603;1251;110154;-62
2023/10/01 06:05:57;;;;;;;33.90;16.30;;;;;;;16.49;73.70;101579.34;107579;1251;106384;-63
2023/10/01 06:08:32;;;;;;;26.80;16.10;;;;;;;16.57;73.29;101577.98;107578;1256;97855;-62
2023/10/01 06:11:09;;;;;;;26.80;17.20;;;;;;;16.67;73.54;101577.55;107586;1255;97715;-63
2023/10/01 06:13:48;;;;;;;31.50;16.50;;;;;;;16.75;73.30;101573.99;107519;1254;111893;-63
2023/10/01 06:16:25;;;;;;;32.00;17.10;;;;;;;16.92;72.72;101579.43;107544;1254;108368;-62
2023/10/01 06:18:59;;;;;;;32.40;15.80;;;;;;;17.03;72.56;101582.25;107528;1251;108309;-62
2023/10/01 06:21:31;;;;;;;30.70;16.00;;;;;;;17.11;72.11;101580.34;107574;1256;97950;-62
2023/10/01 06:24:06;;;;;;;32.00;16.40;;;;;;;17.21;71.81;101583.45;107597;1251;97700;-63
2023/10/01 06:26:56;;;;;;;37.40;17.80;;;;;;;17.28;71.50;101583.70;107577;1253;112366;-63
2023/10/01 06:29:25;;;;;;;28.40;15.60;;;;;;;17.28;71.23;101580.17;107572;1251;109039;-62
2023/10/01 06:32:02;;;;;;;35.30;16.30;;;;;;;17.36;71.15;101576.14;107537;1252;107641;-63
2023/10/01 06:34:32;;;;;;;28.90;17.60;;;;;;;17.44;71.21;101579.95;107564;1254;97818;-63
2023/10/01 06:37:01;;;;;;;32.90;16.80;;;;;;;17.47;70.99;101579.13;107641;1256;98557;-62
2023/10/01 06:39:35;;;;;;;25.60;15.40;;;;;;;17.53;70.57;101586.35;107586;1254;111862;-63
2023/10/01 06:42:19;;;;;;;30.90;16.70;;;;;;;17.62;70.36;101586.47;107596;1254;109323;-63
2023/10/01 06:44:55;;;;;;;25.20;16.00;;;;;;;17.71;70.08;101589.36;107587;1252;108103;-63
2023/10/01 06:47:25;;;;;;;30.10;16.40;;;;;;;17.75;70.09;101593.94;107579;1254;97870;-63
2023/10/01 06:52:41;;;;;;;30.40;16.70;;;;;;;17.94;69.61;101596.02;107625;1251;111055;-64
2023/10/01 06:55:28;;;;;;;34.90;17.80;;;;;;;17.96;69.53;101598.67;107571;1254;109107;-65
2023/10/01 06:58:00;;;;;;;42.20;16.70;;;;;;;17.97;69.31;101597.08;107597;1254;108859;-63
2023/10/01 07:00:33;;;;;;;25.20;15.80;;;;;;;18.03;69.07;101596.48;107548;1256;97821;-63
2023/10/01 07:03:19;;;;;;;33.10;16.60;;;;;;;18.11;69.04;101598.73;107580;1253;97798;-63
2023/10/01 07:05:51;;;;;;;35.10;16.50;;;;;;;18.13;69.07;101604.59;107586;1252;112145;-63
2023/10/01 07:08:20;;;;;;;33.00;16.80;;;;;;;18.20;68.89;101603.89;107591;1253;109777;-65
2023/10/01 07:10:50;;;;;;;29.30;16.10;;;;;;;18.27;68.66;101608.23;107483;1254;107613;-63
2023/10/01 07:13:22;;;;;;;30.60;17.50;;;;;;;18.33;68.53;101611.23;107530;1252;97938;-63
2023/10/01 07:15:52;;;;;;;26.60;16.00;;;;;;;18.34;68.42;101611.67;107564;1252;98383;-63
2023/10/01 07:18:22;;;;;;;29.00;16.00;;;;;;;18.34;68.44;101611.00;107608;1251;111827;-63
2023/10/01 07:20:50;;;;;;;30.70;15.20;;;;;;;18.36;68.05;101611.23;107654;1254;108445;-62
2023/10/01 07:23:21;;;;;;;32.50;17.30;;;;;;;18.40;68.20;101608.43;107608;1251;107948;-62
2023/10/01 07:26:00;;;;;;;40.80;16.60;;;;;;;18.40;67.97;101609.56;107529;1252;97855;-63
2023/10/01 07:28:30;;;;;;;27.60;15.70;;;;;;;18.46;67.85;101607.68;107615;1251;97844;-64
2023/10/01 07:31:02;;;;;;;28.60;16.10;;;;;;;18.49;67.69;101610.41;107590;1254;111908;-62
2023/10/01 07:33:31;;;;;;;31.20;17.50;;;;;;;18.51;67.83;101607.27;107602;1254;109792;-64
2023/10/01 07:35:59;;;;;;;38.90;17.50;;;;;;;18.52;67.68;101611.52;107519;1253;107766;-62
2023/10/01 07:38:32;;;;;;;32.60;16.40;;;;;;;18.53;67.77;101614.73;107501;1252;97750;-63
2023/10/01 07:41:07;;;;;;;33.30;14.20;;;;;;;18.53;67.47;101609.58;107630;1251;97926;-63
2023/10/01 07:43:37;;;;;;;28.70;12.50;;;;;;;18.56;66.69;101609.64;107643;1251;111876;-62
2023/10/01 07:46:07;;;;;;;24.10;13.20;;;;;;;18.59;66.20;101607.33;107595;1251;108670;-64
2023/10/01 07:48:48;;;;;;;29.60;12.50;;;;;;;18.63;66.15;101608.73;107517;1256;107662;-63
2023/10/01 07:51:28;;;;;;;30.40;11.90;;;;;;;18.70;65.73;101607.43;107553;1254;97941;-63
2023/10/01 07:53:57;;;;;;;31.50;12.10;;;;;;;18.73;65.20;101607.58;107525;1254;97820;-63
2023/10/01 07:56:25;;;;;;;31.40;12.00;;;;;;;18.79;65.12;101609.10;107576;1254;110976;-63
2023/10/01 07:59:16;;;;;;;20.50;11.60;;;;;;;18.85;64.66;101608.20;107549;1251;109692;-63
2023/10/01 08:01:56;;;;;;;26.20;11.80;;;;;;;18.95;64.48;101603.44;107533;1255;107073;-62
2023/10/01 08:07:15;;;;;;;23.20;12.10;;;;;;;19.05;64.10;101611.02;107620;1252;97898;-63
2023/10/01 08:09:57;;;;;;;23.60;12.10;;;;;;;19.06;64.09;101611.86;107620;1254;112440;-63
2023/10/01 08:12:29;;;;;;;24.50;12.00;;;;;;;19.10;64.19;101615.02;107650;1253;109115;-62
2023/10/01 08:17:47;;;;;;;26.00;11.90;;;;;;;19.23;63.82;101618.83;107626;1254;97840;-62
2023/10/01 08:20:21;;;;;;;25.50;10.70;;;;;;;19.26;63.65;101619.64;107622;1251;97815;-63
2023/10/01 08:25:49;;;;;;;27.50;10.40;;;;;;;19.18;62.78;101622.48;107514;1253;109292;-62
2023/10/01 08:30:49;;;;;;;28.40;9.90;;;;;;;19.37;61.95;101621.33;107580;1253;97831;-63
2023/10/01 08:33:24;;;;;;;32.20;10.70;;;;;;;19.46;61.55;101621.67;107510;1253;97743;-62
2023/10/01 08:36:01;;;;;;;20.70;8.70;;;;;;;19.51;60.55;101624.96;107569;1253;111894;-63
2023/10/01 08:38:34;;;;;;;21.20;8.70;;;;;;;19.53;59.84;101628.17;107568;1254;110895;-63
2023/10/01 08:41:05;;;;;;;22.80;8.80;;;;;;;19.65;59.82;101626.32;107566;1251;108232;-62
2023/10/01 08:43:37;;;;;;;18.60;6.80;;;;;;;19.94;58.96;101620.64;107593;1256;97838;-63
2023/10/01 08:46:16;;;;;;;13.20;6.10;;;;;;;20.12;57.83;101622.20;107632;1253;99287;-64
2023/10/01 08:48:44;;;;;;;16.50;4.30;;;;;;;20.15;56.30;101627.66;107552;1251;111667;-63
2023/10/01 08:51:16;;;;;;;14.90;4.30;;;;;;;20.33;55.89;101622.86;107563;1252;109137;-64
2023/10/01 08:53:46;;;;;;;12.00;4.60;;;;;;;20.85;54.13;101615.93;107555;1255;108144;-62
2023/10/01 08:56:14;;;;;;;12.50;4.20;;;;;;;21.25;53.30;101616.92;107595;1254;97934;-63
2023/10/01 08:58:49;;;;;;;15.20;4.50;;;;;;;21.62;51.53;101614.58;107666;1254;97837;-63
2023/10/01 09:01:21;;;;;;;11.40;4.10;;;;;;;22.01;50.52;101612.27;107579;1251;111457;-64
2023/10/01 09:03:50;;;;;;;21.00;5.30;;;;;;;22.33;48.04;101610.59;107620;1251;109899;-62
2023/10/01 09:06:25;;;;;;;25.30;4.30;;;;;;;22.57;48.14;101610.48;107621;1254;108174;-64
2023/10/01 09:08:59;;;;;;;17.60;4.10;;;;;;;22.71;46.67;101609.35;107540;1254;97838;-63
2023/10/01 09:11:35;;;;;;;14.20;3.50;;;;;;;22.88;46.66;101611.86;107513;1254;97948;-62
2023/10/01 09:14:21;;;;;;;15.80;3.90;;;;;;;23.21;46.01;101612.98;107522;1256;110759;-64
2023/10/01 09:16:57;;;;;;;15.30;4.50;;;;;;;23.30;44.92;101609.27;107582;1254;110104;-63
2023/10/01 09:19:42;;;;;;;11.70;4.20;;;;;;;23.20;44.61;101612.68;107568;1251;108081;-62
2023/10/01 09:22:16;;;;;;;16.60;4.50;;;;;;;23.21;43.27;101613.48;107518;1254;97922;-63
2023/10/01 09:24:55;;;;;;;10.80;3.60;;;;;;;23.74;42.40;101621.05;107616;1252;97714;-63
2023/10/01 09:27:30;;;;;;;11.30;3.80;;;;;;;24.34;41.95;101620.92;107624;1255;111102;-64
2023/10/01 09:30:27;;;;;;;15.80;3.80;;;;;;;24.88;39.16;101619.98;107667;1251;110010;-62
2023/10/01 09:33:04;;;;;;;17.10;4.00;;;;;;;24.93;39.70;101623.04;107603;1254;108373;-65
2023/10/01 09:36:03;;;;;;;14.40;4.20;;;;;;;25.24;38.57;101620.19;107561;1254;97851;-64
2023/10/01 09:38:31;;;;;;;15.30;3.70;;;;;;;25.24;37.97;101623.70;107577;1252;98386;-63
2023/10/01 09:41:00;;;;;;;10.10;3.20;;;;;;;25.04;38.14;101624.90;107532;1254;111575;-64
2023/10/01 09:43:33;;;;;;;11.60;3.80;;;;;;;25.18;37.58;101621.34;107621;1251;107093;-64
2023/10/01 09:46:03;;;;;;;14.60;3.30;;;;;;;25.72;36.63;101618.88;107544;1253;109060;-65
2023/10/01 09:48:37;;;;;;;13.90;3.20;;;;;;;26.36;36.07;101615.73;107553;1251;97832;-64
2023/10/01 09:51:13;;;;;;;12.00;3.70;;;;;;;26.55;34.56;101623.04;107657;1253;98367;-65
2023/10/01 09:53:53;;;;;;;15.00;4.40;;;;;;;26.78;34.46;101616.90;107610;1254;111647;-63
2023/10/01 09:56:27;;;;;;;7.60;3.50;;;;;;;27.21;34.51;101623.30;107622;1251;109163;-63
2023/10/01 09:59:07;;;;;;;17.80;3.80;;;;;;;27.76;33.08;101616.83;107591;1251;107973;-63
2023/10/01 10:01:38;;;;;;;14.30;4.30;;;;;;;28.51;32.28;101616.50;107594;1254;97858;-63
2023/10/01 10:04:10;;;;;;;17.00;3.60;;;;;;;29.27;30.45;101614.84;107586;1251;97912;-63
2023/10/01 10:06:39;;;;;;;11.60;3.30;;;;;;;29.84;27.90;101616.90;107574;1254;110828;-64
2023/10/01 10:09:25;;;;;;;21.40;3.80;;;;;;;30.10;28.83;101617.02;107272;1254;503178;-63
2023/10/01 10:11:54;;;;;;;8.80;3.30;;;;;;;30.52;27.22;101609.63;107530;1254;108592;-64
2023/10/01 10:14:29;;;;;;;12.50;3.40;;;;;;;30.70;28.06;101606.30;107593;1254;97834;-63
2023/10/01 10:16:59;;;;;;;11.60;4.30;;;;;;;31.14;28.06;101600.33;107609;1253;97828;-63
2023/10/01 10:19:31;;;;;;;6.50;3.00;;;;;;;31.49;27.52;101599.17;107586;1254;110787;-64
2023/10/01 10:24:34;;;;;;;16.40;3.80;;;;;;;32.19;27.02;101596.59;107587;1253;109102;-64
2023/10/01 10:27:15;;;;;;;10.60;3.10;;;;;;;32.60;26.32;101589.70;107624;1253;97839;-63
2023/10/01 10:29:46;;;;;;;15.30;3.40;;;;;;;32.86;26.15;101594.39;107593;1255;97739;-63
2023/10/01 10:32:24;;;;;;;9.40;3.20;;;;;;;33.12;25.00;101593.02;107521;1254;111087;-64
2023/10/01 10:35:04;;;;;;;19.40;3.90;;;;;;;33.21;25.19;101594.02;107567;1252;109628;-63
2023/10/01 10:37:36;;;;;;;11.90;3.10;;;;;;;33.25;24.75;101592.48;107622;1254;107142;-63
2023/10/01 10:43:06;;;;;;;11.90;3.30;;;;;;;32.94;25.12;101585.08;107651;1252;97800;-64
2023/10/01 10:45:45;;;;;;;10.20;3.20;;;;;;;33.19;24.96;101587.20;107616;1255;111525;-63
2023/10/01 10:48:21;;;;;;;8.60;3.60;;;;;;;33.37;23.75;101574.73;107565;1255;109942;-64
2023/10/01 10:50:54;;;;;;;8.90;3.50;;;;;;;33.11;23.82;101583.03;107568;1253;107292;-64
2023/10/01 10:53:37;;;;;;;11.40;3.20;;;;;;;33.00;24.68;101578.61;107630;1255;97914;-64
2023/10/01 10:56:15;;;;;;;11.00;3.70;;;;;;;33.21;24.24;101571.99;107620;1254;97716;-64
2023/10/01 10:59:13;;;;;;;8.20;3.70;;;;;;;33.13;24.55;101573.91;107631;1254;111154;-64
2023/10/01 11:01:46;;;;;;;12.90;3.40;;;;;;;33.27;24.62;101572.98;107523;1253;109666;-64
2023/10/01 11:04:16;;;;;;;8.70;3.00;;;;;;;33.31;24.24;101574.97;107560;1253;108512;-64
2023/10/01 11:07:04;;;;;;;16.30;3.50;;;;;;;32.99;24.10;101576.42;107578;1254;97861;-62
2023/10/01 11:09:34;;;;;;;12.30;3.60;;;;;;;32.67;25.26;101573.61;107643;1254;97830;-64
2023/10/01 11:12:05;;;;;;;9.70;3.70;;;;;;;32.45;25.00;101580.20;107660;1254;112102;-65
2023/10/01 11:14:36;;;;;;;11.30;3.20;;;;;;;31.78;25.72;101569.69;107655;1253;109795;-63
2023/10/01 11:17:07;;;;;;;18.20;3.60;;;;;;;31.57;25.89;101565.52;107526;1253;108710;-62
2023/10/01 11:19:36;;;;;;;26.20;3.50;;;;;;;31.51;26.22;101568.17;107555;1254;97912;-63
2023/10/01 11:22:08;;;;;;;11.60;3.50;;;;;;;31.58;26.04;101563.50;107634;1254;97830;-63
2023/10/01 11:24:39;;;;;;;9.50;3.50;;;;;;;31.52;25.94;101562.08;107597;1253;111321;-62
2023/10/01 11:30:17;;;;;;;10.40;3.10;;;;;;;31.01;26.11;101562.40;107586;1253;108546;-62
2023/10/01 11:35:41;;;;;;;10.20;3.80;;;;;;;30.52;26.94;101554.06;107627;1255;97861;-64
2023/10/01 11:38:20;;;;;;;13.90;3.00;;;;;;;30.42;26.79;101557.45;107648;1253;111615;-63
2023/10/01 11:43:59;;;;;;;11.10;3.60;;;;;;;30.38;26.32;101553.09;107564;1254;108810;-63
2023/10/01 11:46:35;;;;;;;12.80;3.20;;;;;;;30.27;26.26;101554.22;107611;1251;97777;-63
2023/10/01 11:49:11;;;;;;;10.50;3.00;;;;;;;30.11;26.87;101554.38;107632;1254;99521;-64
2023/10/01 11:51:50;;;;;;;16.90;3.60;;;;;;;30.10;26.95;101553.08;107627;1252;111522;-63
2023/10/01 11:54:22;;;;;;;14.20;3.30;;;;;;;30.10;27.05;101549.59;107649;1254;109861;-63
2023/10/01 11:57:04;;;;;;;10.70;3.10;;;;;;;30.23;27.13;101547.39;107583;1254;107260;-64
2023/10/01 11:59:42;;;;;;;11.80;3.40;;;;;;;30.24;27.05;101547.90;107628;1254;97837;-64
2023/10/01 12:02:23;;;;;;;15.00;3.00;;;;;;;30.39;26.51;101545.87;107594;1254;97789;-64
2023/10/01 12:04:59;;;;;;;9.50;2.90;;;;;;;30.42;26.27;101544.27;107522;1253;111062;-64
2023/10/01 12:07:39;;;;;;;9.40;3.10;;;;;;;30.50;26.28;101538.64;107586;1253;109092;-63
2023/10/01 12:13:02;;;;;;;16.70;3.10;;;;;;;30.47;26.10;101527.81;107552;1256;97870;-63
2023/10/01 12:15:33;;;;;;;10.20;3.80;;;;;;;30.34;25.72;101526.65;107562;1255;97908;-64
2023/10/01 12:18:13;;;;;;;13.70;3.30;;;;;;;30.39;26.30;101521.91;107604;1254;110544;-64
2023/10/01 12:20:55;;;;;;;7.00;2.90;;;;;;;30.82;25.96;101514.84;107588;1253;109791;-64
2023/10/01 12:23:26;;;;;;;14.50;3.20;;;;;;;31.03;25.15;101516.48;107549;1254;108479;-64